sensor_id;sensor_type;location;lat;lon;timestamp;P1;P2;P0
73825;PMS5003;64145;55.060;73.168;2023-05-02T00:00:25;106.00;95.75;58.25
73825;PMS5003;64145;55.060;73.168;2023-05-02T00:02:51;108.25;97.00;58.75
73825;PMS5003;64145;55.060;73.168;2023-05-02T00:08:19;97.50;86.75;53.00
73825;PMS5003;64145;55.060;73.168;2023-05-02T00:10:49;89.75;81.25;50.25
73825;PMS5003;64145;55.060;73.168;2023-05-02T00:13:15;92.33;80.33;50.00
73825;PMS5003;64145;55.060;73.168;2023-05-02T00:15:40;94.33;85.33;51.00
73825;PMS5003;64145;55.060;73.168;2023-05-02T00:20:50;85.25;77.75;49.00
73825;PMS5003;64145;55.060;73.168;2023-05-02T00:23:15;79.33;72.00;43.00
73825;PMS5003;64145;55.060;73.168;2023-05-02T00:25:44;76.00;69.67;42.00
73825;PMS5003;64145;55.060;73.168;2023-05-02T00:30:54;73.50;66.50;40.75
73825;PMS5003;64145;55.060;73.168;2023-05-02T00:36:10;92.00;85.25;49.75
73825;PMS5003;64145;55.060;73.168;2023-05-02T00:38:37;93.00;85.50;53.00
73825;PMS5003;64145;55.060;73.168;2023-05-02T00:41:03;87.00;79.00;50.00
73825;PMS5003;64145;55.060;73.168;2023-05-02T00:43:29;76.25;69.75;42.75
73825;PMS5003;64145;55.060;73.168;2023-05-02T00:45:55;71.25;64.50;39.50
73825;PMS5003;64145;55.060;73.168;2023-05-02T00:48:21;64.00;57.00;36.00
73825;PMS5003;64145;55.060;73.168;2023-05-02T00:50:47;59.00;49.00;31.25
73825;PMS5003;64145;55.060;73.168;2023-05-02T00:53:13;60.33;49.33;30.00
73825;PMS5003;64145;55.060;73.168;2023-05-02T00:55:41;56.00;44.00;28.00
73825;PMS5003;64145;55.060;73.168;2023-05-02T00:58:11;53.50;42.50;27.00
73825;PMS5003;64145;55.060;73.168;2023-05-02T01:09:39;25.00;25.00;16.00
73825;PMS5003;64145;55.060;73.168;2023-05-02T01:14:45;25.50;23.50;16.00
73825;PMS5003;64145;55.060;73.168;2023-05-02T01:17:13;25.00;23.00;16.00
73825;PMS5003;64145;55.060;73.168;2023-05-02T01:19:44;24.50;22.00;15.00
73825;PMS5003;64145;55.060;73.168;2023-05-02T01:22:13;26.50;23.50;15.00
73825;PMS5003;64145;55.060;73.168;2023-05-02T01:27:21;24.00;22.50;14.25
73825;PMS5003;64145;55.060;73.168;2023-05-02T01:29:54;25.50;24.00;16.00
73825;PMS5003;64145;55.060;73.168;2023-05-02T01:32:22;27.00;24.00;15.00
73825;PMS5003;64145;55.060;73.168;2023-05-02T01:34:58;26.25;24.50;15.00
73825;PMS5003;64145;55.060;73.168;2023-05-02T01:37:35;27.00;25.00;16.00
73825;PMS5003;64145;55.060;73.168;2023-05-02T01:40:01;27.00;25.00;16.00
73825;PMS5003;64145;55.060;73.168;2023-05-02T01:42:28;25.00;23.00;15.00
73825;PMS5003;64145;55.060;73.168;2023-05-02T01:44:54;26.75;25.00;16.50
73825;PMS5003;64145;55.060;73.168;2023-05-02T01:47:25;27.50;25.00;16.50
73825;PMS5003;64145;55.060;73.168;2023-05-02T01:49:53;31.50;26.50;18.00
73825;PMS5003;64145;55.060;73.168;2023-05-02T01:52:38;31.50;26.50;18.00
73825;PMS5003;64145;55.060;73.168;2023-05-02T01:55:05;33.50;28.00;18.00
73825;PMS5003;64145;55.060;73.168;2023-05-02T01:57:31;34.00;28.00;18.25
73825;PMS5003;64145;55.060;73.168;2023-05-02T01:59:57;34.67;28.00;18.00
73825;PMS5003;64145;55.060;73.168;2023-05-02T02:02:33;34.75;29.50;19.00
73825;PMS5003;64145;55.060;73.168;2023-05-02T02:05:05;35.00;30.00;19.50
73825;PMS5003;64145;55.060;73.168;2023-05-02T02:07:50;39.00;32.50;21.50
73825;PMS5003;64145;55.060;73.168;2023-05-02T02:10:35;40.50;34.00;23.25
73825;PMS5003;64145;55.060;73.168;2023-05-02T02:13:12;42.00;34.00;23.00
73825;PMS5003;64145;55.060;73.168;2023-05-02T02:15:58;40.50;32.25;23.00
73825;PMS5003;64145;55.060;73.168;2023-05-02T02:18:25;43.00;36.00;24.00
73825;PMS5003;64145;55.060;73.168;2023-05-02T02:20:51;48.00;39.00;25.00
73825;PMS5003;64145;55.060;73.168;2023-05-02T02:26:12;48.00;39.25;26.25
73825;PMS5003;64145;55.060;73.168;2023-05-02T02:28:38;49.00;40.00;26.00
73825;PMS5003;64145;55.060;73.168;2023-05-02T02:31:04;49.00;40.00;27.00
73825;PMS5003;64145;55.060;73.168;2023-05-02T02:33:30;50.33;39.67;26.33
73825;PMS5003;64145;55.060;73.168;2023-05-02T02:36:11;52.00;41.00;28.00
73825;PMS5003;64145;55.060;73.168;2023-05-02T02:38:41;53.00;43.00;29.75
73825;PMS5003;64145;55.060;73.168;2023-05-02T02:41:14;55.25;45.00;31.25
73825;PMS5003;64145;55.060;73.168;2023-05-02T02:44:13;57.50;46.50;31.50
73825;PMS5003;64145;55.060;73.168;2023-05-02T02:46:49;57.75;46.00;32.00
73825;PMS5003;64145;55.060;73.168;2023-05-02T02:49:23;61.00;48.50;32.00
73825;PMS5003;64145;55.060;73.168;2023-05-02T02:54:42;63.00;49.50;33.00
73825;PMS5003;64145;55.060;73.168;2023-05-02T02:58:14;65.00;51.50;36.25
73825;PMS5003;64145;55.060;73.168;2023-05-02T03:03:00;68.00;55.50;38.75
73825;PMS5003;64145;55.060;73.168;2023-05-02T03:05:26;66.33;53.33;37.33
73825;PMS5003;64145;55.060;73.168;2023-05-02T03:07:53;68.50;56.75;41.00
73825;PMS5003;64145;55.060;73.168;2023-05-02T03:10:20;69.00;57.00;41.00
73825;PMS5003;64145;55.060;73.168;2023-05-02T03:13:10;71.00;60.50;44.00
73825;PMS5003;64145;55.060;73.168;2023-05-02T03:18:21;75.25;69.00;49.25
73825;PMS5003;64145;55.060;73.168;2023-05-02T03:20:47;77.00;73.33;51.00
73825;PMS5003;64145;55.060;73.168;2023-05-02T03:23:12;78.67;75.00;52.67
73825;PMS5003;64145;55.060;73.168;2023-05-02T03:25:42;77.00;72.50;53.00
73825;PMS5003;64145;55.060;73.168;2023-05-02T03:28:17;79.25;75.00;52.00
73825;PMS5003;64145;55.060;73.168;2023-05-02T03:31:05;78.25;72.50;51.00
73825;PMS5003;64145;55.060;73.168;2023-05-02T03:33:49;73.50;65.00;46.00
73825;PMS5003;64145;55.060;73.168;2023-05-02T03:36:14;68.67;58.33;41.67
73825;PMS5003;64145;55.060;73.168;2023-05-02T03:38:41;69.00;59.00;44.50
73825;PMS5003;64145;55.060;73.168;2023-05-02T03:41:07;70.00;60.50;44.25
73825;PMS5003;64145;55.060;73.168;2023-05-02T03:43:33;68.33;56.33;42.00
73825;PMS5003;64145;55.060;73.168;2023-05-02T03:46:03;64.00;51.00;37.33
73825;PMS5003;64145;55.060;73.168;2023-05-02T03:48:29;60.50;48.50;34.00
73825;PMS5003;64145;55.060;73.168;2023-05-02T03:50:54;58.33;46.00;32.00
73825;PMS5003;64145;55.060;73.168;2023-05-02T03:53:20;55.00;44.25;30.50
73825;PMS5003;64145;55.060;73.168;2023-05-02T03:55:46;45.00;36.25;26.00
73825;PMS5003;64145;55.060;73.168;2023-05-02T03:58:35;42.00;34.50;24.00
73825;PMS5003;64145;55.060;73.168;2023-05-02T04:01:19;46.50;37.75;25.00
73825;PMS5003;64145;55.060;73.168;2023-05-02T04:03:45;52.67;42.67;28.33
73825;PMS5003;64145;55.060;73.168;2023-05-02T04:06:10;48.33;40.67;27.67
73825;PMS5003;64145;55.060;73.168;2023-05-02T04:08:47;33.75;31.00;21.00
73825;PMS5003;64145;55.060;73.168;2023-05-02T04:11:13;33.00;30.00;21.00
73825;PMS5003;64145;55.060;73.168;2023-05-02T04:13:39;36.00;32.00;21.00
73825;PMS5003;64145;55.060;73.168;2023-05-02T04:16:05;38.00;33.00;21.67
73825;PMS5003;64145;55.060;73.168;2023-05-02T04:18:53;36.50;30.75;22.00
73825;PMS5003;64145;55.060;73.168;2023-05-02T04:21:37;30.75;27.25;21.00
73825;PMS5003;64145;55.060;73.168;2023-05-02T04:24:03;31.00;29.33;21.00
73825;PMS5003;64145;55.060;73.168;2023-05-02T04:26:29;33.00;30.67;22.00
73825;PMS5003;64145;55.060;73.168;2023-05-02T04:28:57;30.75;27.50;21.00
73825;PMS5003;64145;55.060;73.168;2023-05-02T04:31:27;24.75;23.25;17.25
73825;PMS5003;64145;55.060;73.168;2023-05-02T04:33:52;24.00;21.00;15.00
73825;PMS5003;64145;55.060;73.168;2023-05-02T04:36:18;24.33;24.00;16.00
73825;PMS5003;64145;55.060;73.168;2023-05-02T04:38:44;26.67;24.00;19.00
73825;PMS5003;64145;55.060;73.168;2023-05-02T04:43:54;28.25;27.00;18.00
73825;PMS5003;64145;55.060;73.168;2023-05-02T04:46:19;28.00;27.00;18.00
73825;PMS5003;64145;55.060;73.168;2023-05-02T04:51:29;27.00;26.75;18.00
73825;PMS5003;64145;55.060;73.168;2023-05-02T04:53:56;32.00;30.00;19.00
73825;PMS5003;64145;55.060;73.168;2023-05-02T04:56:40;34.25;31.00;21.00
73825;PMS5003;64145;55.060;73.168;2023-05-02T04:59:05;37.00;32.33;22.00
73825;PMS5003;64145;55.060;73.168;2023-05-02T05:01:31;35.00;31.33;22.00
73825;PMS5003;64145;55.060;73.168;2023-05-02T05:03:56;36.00;33.00;23.00
73825;PMS5003;64145;55.060;73.168;2023-05-02T05:06:22;35.67;32.00;22.00
73825;PMS5003;64145;55.060;73.168;2023-05-02T05:08:54;38.00;33.75;23.00
73825;PMS5003;64145;55.060;73.168;2023-05-02T05:11:19;40.00;34.00;24.00
73825;PMS5003;64145;55.060;73.168;2023-05-02T05:13:45;43.33;35.00;24.67
73825;PMS5003;64145;55.060;73.168;2023-05-02T05:16:10;48.00;40.00;26.67
73825;PMS5003;64145;55.060;73.168;2023-05-02T05:18:36;47.67;40.00;27.00
73825;PMS5003;64145;55.060;73.168;2023-05-02T05:21:05;48.00;40.50;27.00
73825;PMS5003;64145;55.060;73.168;2023-05-02T05:23:31;48.00;40.00;28.25
73825;PMS5003;64145;55.060;73.168;2023-05-02T05:26:19;49.00;40.00;28.00
73825;PMS5003;64145;55.060;73.168;2023-05-02T05:31:29;48.00;39.00;27.00
73825;PMS5003;64145;55.060;73.168;2023-05-02T05:33:58;45.00;38.00;27.00
73825;PMS5003;64145;55.060;73.168;2023-05-02T05:36:30;44.75;37.00;25.00
73825;PMS5003;64145;55.060;73.168;2023-05-02T05:38:56;44.00;37.00;25.00
73825;PMS5003;64145;55.060;73.168;2023-05-02T05:41:22;44.00;35.00;25.00
73825;PMS5003;64145;55.060;73.168;2023-05-02T05:43:48;40.75;34.50;24.00
73825;PMS5003;64145;55.060;73.168;2023-05-02T05:46:14;43.67;35.00;23.00
73825;PMS5003;64145;55.060;73.168;2023-05-02T05:48:58;44.00;37.00;25.00
73825;PMS5003;64145;55.060;73.168;2023-05-02T05:51:23;44.00;37.67;25.00
73825;PMS5003;64145;55.060;73.168;2023-05-02T05:53:49;43.00;36.33;25.00
73825;PMS5003;64145;55.060;73.168;2023-05-02T05:59:17;40.50;34.50;24.50
73825;PMS5003;64145;55.060;73.168;2023-05-02T06:01:42;38.00;33.00;23.00
73825;PMS5003;64145;55.060;73.168;2023-05-02T06:04:08;36.00;33.00;22.00
73825;PMS5003;64145;55.060;73.168;2023-05-02T06:06:34;34.00;31.00;22.00
73825;PMS5003;64145;55.060;73.168;2023-05-02T06:08:59;34.00;31.00;21.00
73825;PMS5003;64145;55.060;73.168;2023-05-02T06:11:25;32.00;31.00;20.00
73825;PMS5003;64145;55.060;73.168;2023-05-02T06:16:40;30.00;28.00;19.00
73825;PMS5003;64145;55.060;73.168;2023-05-02T06:19:09;26.50;24.00;17.00
73825;PMS5003;64145;55.060;73.168;2023-05-02T06:21:53;24.75;23.00;17.00
73825;PMS5003;64145;55.060;73.168;2023-05-02T06:27:08;25.00;23.00;16.00
73825;PMS5003;64145;55.060;73.168;2023-05-02T06:29:33;28.00;26.00;16.00
73825;PMS5003;64145;55.060;73.168;2023-05-02T06:31:59;25.67;23.67;16.00
73825;PMS5003;64145;55.060;73.168;2023-05-02T06:34:43;22.00;22.00;14.00
73825;PMS5003;64145;55.060;73.168;2023-05-02T06:37:08;23.00;20.00;13.00
73825;PMS5003;64145;55.060;73.168;2023-05-02T06:39:34;23.00;21.00;12.00
73825;PMS5003;64145;55.060;73.168;2023-05-02T06:41:59;21.00;19.00;13.00
73825;PMS5003;64145;55.060;73.168;2023-05-02T06:44:25;20.00;18.25;11.00
73825;PMS5003;64145;55.060;73.168;2023-05-02T06:46:51;19.00;19.00;10.00
73825;PMS5003;64145;55.060;73.168;2023-05-02T06:49:16;21.00;19.00;8.00
73825;PMS5003;64145;55.060;73.168;2023-05-02T06:51:42;18.00;18.00;7.00
73825;PMS5003;64145;55.060;73.168;2023-05-02T06:54:17;18.00;15.00;7.00
73825;PMS5003;64145;55.060;73.168;2023-05-02T07:02:11;19.25;18.25;8.50
73825;PMS5003;64145;55.060;73.168;2023-05-02T07:04:41;21.00;19.00;11.50
73825;PMS5003;64145;55.060;73.168;2023-05-02T07:07:06;25.00;21.00;15.00
73825;PMS5003;64145;55.060;73.168;2023-05-02T07:09:32;27.00;21.00;17.00
73825;PMS5003;64145;55.060;73.168;2023-05-02T07:11:57;26.33;25.00;18.00
73825;PMS5003;64145;55.060;73.168;2023-05-02T07:14:25;27.00;25.00;17.00
73825;PMS5003;64145;55.060;73.168;2023-05-02T07:16:55;28.25;25.75;17.00
73825;PMS5003;64145;55.060;73.168;2023-05-02T07:19:25;28.00;25.00;17.00
73825;PMS5003;64145;55.060;73.168;2023-05-02T07:21:50;27.00;25.00;17.00
73825;PMS5003;64145;55.060;73.168;2023-05-02T07:24:16;26.00;24.00;15.00
73825;PMS5003;64145;55.060;73.168;2023-05-02T07:29:27;25.75;22.25;13.25
73825;PMS5003;64145;55.060;73.168;2023-05-02T07:32:11;24.00;22.00;13.00
73825;PMS5003;64145;55.060;73.168;2023-05-02T07:34:36;24.00;23.00;14.00
73825;PMS5003;64145;55.060;73.168;2023-05-02T07:37:09;24.00;23.00;15.00
73825;PMS5003;64145;55.060;73.168;2023-05-02T07:42:20;24.00;23.00;15.00
73825;PMS5003;64145;55.060;73.168;2023-05-02T07:44:56;23.25;21.50;15.00
73825;PMS5003;64145;55.060;73.168;2023-05-02T07:47:32;26.00;23.00;14.00
73825;PMS5003;64145;55.060;73.168;2023-05-02T07:49:58;26.67;24.33;15.00
73825;PMS5003;64145;55.060;73.168;2023-05-02T07:52:24;24.00;24.00;14.00
73825;PMS5003;64145;55.060;73.168;2023-05-02T07:54:50;22.50;21.75;14.00
73825;PMS5003;64145;55.060;73.168;2023-05-02T08:00:18;20.00;20.00;10.00
73825;PMS5003;64145;55.060;73.168;2023-05-02T08:02:44;22.00;20.00;10.33
73825;PMS5003;64145;55.060;73.168;2023-05-02T08:05:28;21.00;19.75;7.25
73825;PMS5003;64145;55.060;73.168;2023-05-02T08:07:53;19.33;19.00;8.00
73825;PMS5003;64145;55.060;73.168;2023-05-02T08:10:19;18.00;16.67;7.00
73825;PMS5003;64145;55.060;73.168;2023-05-02T08:12:44;19.00;17.00;8.00
73825;PMS5003;64145;55.060;73.168;2023-05-02T08:15:15;17.00;16.50;7.25
73825;PMS5003;64145;55.060;73.168;2023-05-02T08:17:40;17.00;16.00;8.00
73825;PMS5003;64145;55.060;73.168;2023-05-02T08:20:06;18.67;16.67;8.00
73825;PMS5003;64145;55.060;73.168;2023-05-02T08:22:33;19.00;16.00;8.00
73825;PMS5003;64145;55.060;73.168;2023-05-02T08:24:58;21.33;18.67;10.67
73825;PMS5003;64145;55.060;73.168;2023-05-02T08:27:24;22.00;19.33;11.67
73825;PMS5003;64145;55.060;73.168;2023-05-02T08:29:49;26.33;23.00;13.33
73825;PMS5003;64145;55.060;73.168;2023-05-02T08:32:15;26.33;26.33;16.00
73825;PMS5003;64145;55.060;73.168;2023-05-02T08:34:40;25.33;24.33;17.00
73825;PMS5003;64145;55.060;73.168;2023-05-02T08:37:11;21.00;21.00;16.00
73825;PMS5003;64145;55.060;73.168;2023-05-02T08:39:37;19.50;19.50;13.50
73825;PMS5003;64145;55.060;73.168;2023-05-02T08:44:47;22.00;20.50;10.25
73825;PMS5003;64145;55.060;73.168;2023-05-02T08:47:17;27.25;24.00;15.50
73825;PMS5003;64145;55.060;73.168;2023-05-02T08:49:43;27.33;22.67;16.00
73825;PMS5003;64145;55.060;73.168;2023-05-02T08:52:10;23.00;22.25;15.50
73825;PMS5003;64145;55.060;73.168;2023-05-02T08:54:37;26.00;25.00;17.25
73825;PMS5003;64145;55.060;73.168;2023-05-02T08:57:12;26.00;25.00;19.00
73825;PMS5003;64145;55.060;73.168;2023-05-02T08:59:38;29.00;27.00;18.00
73825;PMS5003;64145;55.060;73.168;2023-05-02T09:02:06;28.00;27.00;19.00
73825;PMS5003;64145;55.060;73.168;2023-05-02T09:04:55;29.25;27.50;19.00
73825;PMS5003;64145;55.060;73.168;2023-05-02T09:07:24;31.50;29.00;19.75
73825;PMS5003;64145;55.060;73.168;2023-05-02T09:09:50;35.67;31.33;21.67
73825;PMS5003;64145;55.060;73.168;2023-05-02T09:12:16;36.00;32.00;22.00
73825;PMS5003;64145;55.060;73.168;2023-05-02T09:14:42;32.00;30.00;22.00
73825;PMS5003;64145;55.060;73.168;2023-05-02T09:17:07;33.50;30.00;21.50
73825;PMS5003;64145;55.060;73.168;2023-05-02T09:19:33;30.00;29.00;20.00
73825;PMS5003;64145;55.060;73.168;2023-05-02T09:24:43;33.00;31.00;20.00
73825;PMS5003;64145;55.060;73.168;2023-05-02T09:27:08;38.00;33.33;22.00
73825;PMS5003;64145;55.060;73.168;2023-05-02T09:29:34;43.00;37.00;25.00
73825;PMS5003;64145;55.060;73.168;2023-05-02T09:32:11;41.00;35.00;24.00
73825;PMS5003;64145;55.060;73.168;2023-05-02T09:34:37;39.00;34.00;23.00
73825;PMS5003;64145;55.060;73.168;2023-05-02T09:37:03;41.50;34.00;23.00
73825;PMS5003;64145;55.060;73.168;2023-05-02T09:42:13;44.25;37.00;25.00
73825;PMS5003;64145;55.060;73.168;2023-05-02T09:44:54;46.50;38.75;27.00
73825;PMS5003;64145;55.060;73.168;2023-05-02T09:47:23;47.00;39.00;27.00
73825;PMS5003;64145;55.060;73.168;2023-05-02T09:49:50;40.50;35.00;25.25
73825;PMS5003;64145;55.060;73.168;2023-05-02T09:52:17;38.67;34.00;24.00
73825;PMS5003;64145;55.060;73.168;2023-05-02T09:54:44;35.00;31.00;22.00
73825;PMS5003;64145;55.060;73.168;2023-05-02T09:57:38;34.75;31.50;22.00
73825;PMS5003;64145;55.060;73.168;2023-05-02T10:00:13;36.00;32.00;22.00
73825;PMS5003;64145;55.060;73.168;2023-05-02T10:02:54;35.00;32.00;22.00
73825;PMS5003;64145;55.060;73.168;2023-05-02T10:05:20;27.67;27.00;19.67
73825;PMS5003;64145;55.060;73.168;2023-05-02T10:07:46;24.67;24.67;19.00
73825;PMS5003;64145;55.060;73.168;2023-05-02T10:10:13;28.00;27.00;19.33
73825;PMS5003;64145;55.060;73.168;2023-05-02T10:15:33;33.00;31.00;21.00
73825;PMS5003;64145;55.060;73.168;2023-05-02T10:18:12;25.50;24.50;18.00
73825;PMS5003;64145;55.060;73.168;2023-05-02T10:26:14;19.00;19.00;11.75
73825;PMS5003;64145;55.060;73.168;2023-05-02T10:28:40;21.50;21.50;13.75
73825;PMS5003;64145;55.060;73.168;2023-05-02T10:31:24;24.00;22.00;15.00
73825;PMS5003;64145;55.060;73.168;2023-05-02T10:33:51;20.25;20.00;11.00
73825;PMS5003;64145;55.060;73.168;2023-05-02T10:36:19;22.33;22.33;13.00
73825;PMS5003;64145;55.060;73.168;2023-05-02T10:38:45;23.25;23.00;16.00
73825;PMS5003;64145;55.060;73.168;2023-05-02T10:41:20;21.00;18.00;13.00
73825;PMS5003;64145;55.060;73.168;2023-05-02T10:51:27;30.33;25.00;18.00
73825;PMS5003;64145;55.060;73.168;2023-05-02T11:02:00;23.00;23.00;17.00
73825;PMS5003;64145;55.060;73.168;2023-05-02T11:09:46;22.00;18.50;14.00
73825;PMS5003;64145;55.060;73.168;2023-05-02T11:12:11;18.00;15.00;9.67
73825;PMS5003;64145;55.060;73.168;2023-05-02T11:14:57;19.50;17.75;11.00
73825;PMS5003;64145;55.060;73.168;2023-05-02T11:17:23;22.00;21.00;13.75
73825;PMS5003;64145;55.060;73.168;2023-05-02T11:20:17;23.50;22.00;14.25
73825;PMS5003;64145;55.060;73.168;2023-05-02T11:22:43;26.00;24.00;16.00
73825;PMS5003;64145;55.060;73.168;2023-05-02T11:25:27;20.00;20.00;14.00
73825;PMS5003;64145;55.060;73.168;2023-05-02T11:27:53;17.00;17.00;8.25
73825;PMS5003;64145;55.060;73.168;2023-05-02T11:30:35;16.00;15.00;7.00
73825;PMS5003;64145;55.060;73.168;2023-05-02T11:35:29;14.00;13.00;7.25
73825;PMS5003;64145;55.060;73.168;2023-05-02T11:37:59;16.00;14.50;6.75
73825;PMS5003;64145;55.060;73.168;2023-05-02T11:40:29;19.00;16.50;8.00
73825;PMS5003;64145;55.060;73.168;2023-05-02T11:42:56;19.00;17.00;9.00
73825;PMS5003;64145;55.060;73.168;2023-05-02T11:45:26;21.00;19.00;10.00
73825;PMS5003;64145;55.060;73.168;2023-05-02T11:47:57;19.00;18.00;11.00
73825;PMS5003;64145;55.060;73.168;2023-05-02T11:50:28;20.00;20.00;12.00
73825;PMS5003;64145;55.060;73.168;2023-05-02T11:52:59;25.50;23.75;16.00
73825;PMS5003;64145;55.060;73.168;2023-05-02T11:55:25;31.25;29.00;19.00
73825;PMS5003;64145;55.060;73.168;2023-05-02T12:00:41;21.00;21.00;16.00
73825;PMS5003;64145;55.060;73.168;2023-05-02T12:03:06;19.00;18.00;15.00
73825;PMS5003;64145;55.060;73.168;2023-05-02T12:05:32;16.00;15.00;8.33
73825;PMS5003;64145;55.060;73.168;2023-05-02T12:08:02;15.00;14.00;5.25
73825;PMS5003;64145;55.060;73.168;2023-05-02T12:10:36;13.00;13.00;6.00
73825;PMS5003;64145;55.060;73.168;2023-05-02T12:13:05;16.25;14.75;8.75
73825;PMS5003;64145;55.060;73.168;2023-05-02T12:15:31;21.00;18.00;9.00
73825;PMS5003;64145;55.060;73.168;2023-05-02T12:17:57;25.75;22.00;14.00
73825;PMS5003;64145;55.060;73.168;2023-05-02T12:20:23;29.33;24.00;17.00
73825;PMS5003;64145;55.060;73.168;2023-05-02T12:22:48;29.00;26.00;19.00
73825;PMS5003;64145;55.060;73.168;2023-05-02T12:25:19;28.00;25.75;18.00
73825;PMS5003;64145;55.060;73.168;2023-05-02T12:28:00;29.00;29.00;19.00
73825;PMS5003;64145;55.060;73.168;2023-05-02T12:30:37;31.00;29.00;19.00
73825;PMS5003;64145;55.060;73.168;2023-05-02T12:33:04;38.00;34.00;21.75
73825;PMS5003;64145;55.060;73.168;2023-05-02T12:35:30;28.50;28.50;19.00
73825;PMS5003;64145;55.060;73.168;2023-05-02T12:38:08;26.00;26.00;18.00
73825;PMS5003;64145;55.060;73.168;2023-05-02T12:40:33;26.25;26.00;17.00
73825;PMS5003;64145;55.060;73.168;2023-05-02T12:43:00;26.25;25.00;18.00
73825;PMS5003;64145;55.060;73.168;2023-05-02T12:50:44;35.50;32.50;22.00
73825;PMS5003;64145;55.060;73.168;2023-05-02T12:56:04;36.25;31.00;22.00
73825;PMS5003;64145;55.060;73.168;2023-05-02T12:58:37;29.50;27.00;19.75
73825;PMS5003;64145;55.060;73.168;2023-05-02T13:01:04;24.00;22.50;17.00
73825;PMS5003;64145;55.060;73.168;2023-05-02T13:03:31;22.00;21.00;16.75
73825;PMS5003;64145;55.060;73.168;2023-05-02T13:05:57;29.33;27.33;19.33
73825;PMS5003;64145;55.060;73.168;2023-05-02T13:08:22;32.00;29.00;20.00
73825;PMS5003;64145;55.060;73.168;2023-05-02T13:13:32;32.00;30.00;21.00
73825;PMS5003;64145;55.060;73.168;2023-05-02T13:15:59;33.25;31.00;21.00
73825;PMS5003;64145;55.060;73.168;2023-05-02T13:18:24;34.67;31.00;22.00
73825;PMS5003;64145;55.060;73.168;2023-05-02T13:20:52;45.25;36.75;26.00
73825;PMS5003;64145;55.060;73.168;2023-05-02T13:23:17;48.00;39.67;27.00
73825;PMS5003;64145;55.060;73.168;2023-05-02T13:25:43;47.00;39.00;27.00
73825;PMS5003;64145;55.060;73.168;2023-05-02T13:28:18;46.25;39.00;27.00
73825;PMS5003;64145;55.060;73.168;2023-05-02T13:30:44;44.33;37.33;27.33
73825;PMS5003;64145;55.060;73.168;2023-05-02T13:33:10;40.00;34.00;25.00
73825;PMS5003;64145;55.060;73.168;2023-05-02T13:35:45;36.00;31.50;22.75
73825;PMS5003;64145;55.060;73.168;2023-05-02T13:38:11;34.67;31.33;22.33
73825;PMS5003;64145;55.060;73.168;2023-05-02T13:40:41;36.75;31.00;22.25
73825;PMS5003;64145;55.060;73.168;2023-05-02T13:45:51;39.25;33.50;23.00
73825;PMS5003;64145;55.060;73.168;2023-05-02T13:48:17;41.67;35.67;25.00
73825;PMS5003;64145;55.060;73.168;2023-05-02T13:50:47;44.50;38.50;25.50
73825;PMS5003;64145;55.060;73.168;2023-05-02T13:53:13;44.00;38.00;26.00
73825;PMS5003;64145;55.060;73.168;2023-05-02T13:55:38;46.00;38.00;26.67
73825;PMS5003;64145;55.060;73.168;2023-05-02T13:58:04;48.33;39.33;27.33
73825;PMS5003;64145;55.060;73.168;2023-05-02T14:03:13;48.75;41.50;28.25
73825;PMS5003;64145;55.060;73.168;2023-05-02T14:05:39;52.67;44.00;30.33
73825;PMS5003;64145;55.060;73.168;2023-05-02T14:08:08;61.00;49.00;33.00
73825;PMS5003;64145;55.060;73.168;2023-05-02T14:10:34;61.00;49.00;33.00
73825;PMS5003;64145;55.060;73.168;2023-05-02T14:13:02;60.75;49.25;33.00
73825;PMS5003;64145;55.060;73.168;2023-05-02T14:15:28;55.25;46.25;31.00
73825;PMS5003;64145;55.060;73.168;2023-05-02T14:18:02;51.33;43.33;30.00
73825;PMS5003;64145;55.060;73.168;2023-05-02T14:20:28;50.50;42.50;29.00
73825;PMS5003;64145;55.060;73.168;2023-05-02T14:22:53;51.33;42.33;29.33
73825;PMS5003;64145;55.060;73.168;2023-05-02T14:31:16;52.50;43.50;29.75
73825;PMS5003;64145;55.060;73.168;2023-05-02T14:36:26;60.00;48.50;32.50
73825;PMS5003;64145;55.060;73.168;2023-05-02T14:39:14;59.50;47.00;32.50
73825;PMS5003;64145;55.060;73.168;2023-05-02T14:41:41;60.50;48.50;33.00
73825;PMS5003;64145;55.060;73.168;2023-05-02T14:44:06;62.67;50.00;35.33
73825;PMS5003;64145;55.060;73.168;2023-05-02T14:46:32;66.00;56.33;38.00
73825;PMS5003;64145;55.060;73.168;2023-05-02T14:48:58;66.75;56.75;38.50
73825;PMS5003;64145;55.060;73.168;2023-05-02T14:51:24;68.33;57.00;39.67
73825;PMS5003;64145;55.060;73.168;2023-05-02T14:53:49;70.67;61.00;43.33
73825;PMS5003;64145;55.060;73.168;2023-05-02T14:56:15;68.33;58.00;42.67
73825;PMS5003;64145;55.060;73.168;2023-05-02T14:58:59;73.50;66.00;48.25
73825;PMS5003;64145;55.060;73.168;2023-05-02T15:04:09;72.50;64.50;46.50
73825;PMS5003;64145;55.060;73.168;2023-05-02T15:06:44;66.50;55.75;40.75
73825;PMS5003;64145;55.060;73.168;2023-05-02T15:09:28;63.50;53.00;38.00
73825;PMS5003;64145;55.060;73.168;2023-05-02T15:11:54;66.00;56.00;39.33
73825;PMS5003;64145;55.060;73.168;2023-05-02T15:14:20;61.00;48.50;33.25
73825;PMS5003;64145;55.060;73.168;2023-05-02T15:16:46;62.00;48.00;34.33
73825;PMS5003;64145;55.060;73.168;2023-05-02T15:19:12;56.33;45.00;31.00
73825;PMS5003;64145;55.060;73.168;2023-05-02T15:21:47;51.75;41.50;28.50
73825;PMS5003;64145;55.060;73.168;2023-05-02T15:24:14;55.25;43.25;30.50
73825;PMS5003;64145;55.060;73.168;2023-05-02T15:26:49;57.00;44.50;31.00
73825;PMS5003;64145;55.060;73.168;2023-05-02T15:29:43;53.50;44.00;30.00
73825;PMS5003;64145;55.060;73.168;2023-05-02T15:32:09;50.67;41.00;29.00
73825;PMS5003;64145;55.060;73.168;2023-05-02T15:34:34;48.00;40.33;28.00
73825;PMS5003;64145;55.060;73.168;2023-05-02T15:37:01;49.00;40.67;28.00
73825;PMS5003;64145;55.060;73.168;2023-05-02T15:39:27;48.50;40.00;27.00
73825;PMS5003;64145;55.060;73.168;2023-05-02T15:41:52;47.00;38.00;26.00
73825;PMS5003;64145;55.060;73.168;2023-05-02T15:44:18;47.00;38.25;26.00
73825;PMS5003;64145;55.060;73.168;2023-05-02T15:46:44;49.33;40.33;27.33
73825;PMS5003;64145;55.060;73.168;2023-05-02T15:49:11;53.75;42.00;29.50
73825;PMS5003;64145;55.060;73.168;2023-05-02T15:51:37;57.50;45.75;31.25
73825;PMS5003;64145;55.060;73.168;2023-05-02T15:54:02;63.00;53.33;35.67
73825;PMS5003;64145;55.060;73.168;2023-05-02T15:59:12;67.75;59.50;39.50
73825;PMS5003;64145;55.060;73.168;2023-05-02T16:01:37;67.00;57.00;38.00
73825;PMS5003;64145;55.060;73.168;2023-05-02T16:06:53;76.25;71.75;45.75
73825;PMS5003;64145;55.060;73.168;2023-05-02T16:09:37;80.25;73.50;48.25